sensor_id;sensor_type;location;lat;lon;timestamp;P1;durP1;ratioP1;P2;durP2;ratioP2
79697;SDS011;69168;42.708;23.286;2023-04-24T00:01:26;7.35;;;4.68;;
79697;SDS011;69168;42.708;23.286;2023-04-24T00:03:54;10.48;;;4.80;;
79697;SDS011;69168;42.708;23.286;2023-04-24T00:06:24;10.05;;;4.85;;
79697;SDS011;69168;42.708;23.286;2023-04-24T00:08:58;5.70;;;4.50;;
79697;SDS011;69168;42.708;23.286;2023-04-24T00:11:25;6.68;;;4.68;;
79697;SDS011;69168;42.708;23.286;2023-04-24T00:13:50;10.80;;;4.32;;
79697;SDS011;69168;42.708;23.286;2023-04-24T00:16:16;8.10;;;5.25;;
79697;SDS011;69168;42.708;23.286;2023-04-24T00:18:41;8.00;;;4.72;;
79697;SDS011;69168;42.708;23.286;2023-04-24T00:21:06;9.55;;;4.50;;
79697;SDS011;69168;42.708;23.286;2023-04-24T00:23:32;9.82;;;5.00;;
79697;SDS011;69168;42.708;23.286;2023-04-24T00:25:57;7.85;;;4.82;;
79697;SDS011;69168;42.708;23.286;2023-04-24T00:28:23;7.35;;;4.82;;
79697;SDS011;69168;42.708;23.286;2023-04-24T00:30:48;8.93;;;4.50;;
79697;SDS011;69168;42.708;23.286;2023-04-24T00:33:13;8.77;;;4.70;;
79697;SDS011;69168;42.708;23.286;2023-04-24T00:35:39;8.57;;;4.85;;
79697;SDS011;69168;42.708;23.286;2023-04-24T00:38:05;8.27;;;4.85;;
79697;SDS011;69168;42.708;23.286;2023-04-24T00:40:31;8.63;;;5.20;;
79697;SDS011;69168;42.708;23.286;2023-04-24T00:42:56;12.15;;;4.93;;
79697;SDS011;69168;42.708;23.286;2023-04-24T00:45:22;9.18;;;5.40;;
79697;SDS011;69168;42.708;23.286;2023-04-24T00:47:48;7.13;;;5.00;;
79697;SDS011;69168;42.708;23.286;2023-04-24T00:50:14;8.43;;;4.82;;
79697;SDS011;69168;42.708;23.286;2023-04-24T00:52:40;8.38;;;5.18;;
79697;SDS011;69168;42.708;23.286;2023-04-24T00:55:06;7.68;;;4.82;;
79697;SDS011;69168;42.708;23.286;2023-04-24T00:57:32;6.55;;;5.35;;
79697;SDS011;69168;42.708;23.286;2023-04-24T00:59:57;7.50;;;4.03;;
79697;SDS011;69168;42.708;23.286;2023-04-24T01:02:23;11.75;;;5.10;;
79697;SDS011;69168;42.708;23.286;2023-04-24T01:04:52;10.45;;;5.93;;
79697;SDS011;69168;42.708;23.286;2023-04-24T01:07:19;9.10;;;6.07;;
79697;SDS011;69168;42.708;23.286;2023-04-24T01:09:45;8.25;;;5.70;;
79697;SDS011;69168;42.708;23.286;2023-04-24T01:12:14;13.95;;;5.38;;
79697;SDS011;69168;42.708;23.286;2023-04-24T01:14:40;8.27;;;5.45;;
79697;SDS011;69168;42.708;23.286;2023-04-24T01:17:05;8.75;;;5.63;;
79697;SDS011;69168;42.708;23.286;2023-04-24T01:19:32;10.18;;;5.80;;
79697;SDS011;69168;42.708;23.286;2023-04-24T01:21:58;8.43;;;5.22;;
79697;SDS011;69168;42.708;23.286;2023-04-24T01:24:24;10.55;;;4.72;;
79697;SDS011;69168;42.708;23.286;2023-04-24T01:26:49;7.22;;;4.63;;
79697;SDS011;69168;42.708;23.286;2023-04-24T01:29:15;7.70;;;4.85;;
79697;SDS011;69168;42.708;23.286;2023-04-24T01:31:41;8.50;;;5.00;;
79697;SDS011;69168;42.708;23.286;2023-04-24T01:34:06;7.50;;;5.32;;
79697;SDS011;69168;42.708;23.286;2023-04-24T01:36:33;8.75;;;6.07;;
79697;SDS011;69168;42.708;23.286;2023-04-24T01:39:00;9.95;;;5.43;;
79697;SDS011;69168;42.708;23.286;2023-04-24T01:41:26;10.02;;;4.97;;
79697;SDS011;69168;42.708;23.286;2023-04-24T01:43:51;6.47;;;4.57;;
79697;SDS011;69168;42.708;23.286;2023-04-24T01:46:17;5.35;;;4.50;;
79697;SDS011;69168;42.708;23.286;2023-04-24T01:48:44;7.22;;;4.57;;
79697;SDS011;69168;42.708;23.286;2023-04-24T01:51:10;11.18;;;4.82;;
79697;SDS011;69168;42.708;23.286;2023-04-24T01:53:35;8.20;;;4.80;;
79697;SDS011;69168;42.708;23.286;2023-04-24T01:56:01;5.65;;;4.40;;
79697;SDS011;69168;42.708;23.286;2023-04-24T01:58:27;7.93;;;4.60;;
79697;SDS011;69168;42.708;23.286;2023-04-24T02:00:53;8.35;;;4.40;;
79697;SDS011;69168;42.708;23.286;2023-04-24T02:03:21;6.90;;;4.40;;
79697;SDS011;69168;42.708;23.286;2023-04-24T02:05:47;6.72;;;4.72;;
79697;SDS011;69168;42.708;23.286;2023-04-24T02:08:12;9.43;;;4.72;;
79697;SDS011;69168;42.708;23.286;2023-04-24T02:10:38;6.82;;;4.10;;
79697;SDS011;69168;42.708;23.286;2023-04-24T02:13:03;8.07;;;4.82;;
79697;SDS011;69168;42.708;23.286;2023-04-24T02:15:29;8.07;;;5.18;;
79697;SDS011;69168;42.708;23.286;2023-04-24T02:17:55;7.75;;;5.00;;
79697;SDS011;69168;42.708;23.286;2023-04-24T02:20:20;10.90;;;5.10;;
79697;SDS011;69168;42.708;23.286;2023-04-24T02:22:46;7.22;;;4.95;;
79697;SDS011;69168;42.708;23.286;2023-04-24T02:25:11;6.78;;;5.25;;
79697;SDS011;69168;42.708;23.286;2023-04-24T02:27:37;7.80;;;5.43;;
79697;SDS011;69168;42.708;23.286;2023-04-24T02:30:02;9.38;;;5.43;;
79697;SDS011;69168;42.708;23.286;2023-04-24T02:32:28;9.40;;;5.53;;
79697;SDS011;69168;42.708;23.286;2023-04-24T02:34:55;8.88;;;6.22;;
79697;SDS011;69168;42.708;23.286;2023-04-24T02:37:21;10.48;;;5.30;;
79697;SDS011;69168;42.708;23.286;2023-04-24T02:39:46;10.57;;;6.15;;
79697;SDS011;69168;42.708;23.286;2023-04-24T02:42:12;10.77;;;5.93;;
79697;SDS011;69168;42.708;23.286;2023-04-24T02:44:37;8.60;;;5.78;;
79697;SDS011;69168;42.708;23.286;2023-04-24T02:47:03;10.60;;;6.32;;
79697;SDS011;69168;42.708;23.286;2023-04-24T02:49:28;9.07;;;6.22;;
79697;SDS011;69168;42.708;23.286;2023-04-24T02:51:54;9.25;;;5.55;;
79697;SDS011;69168;42.708;23.286;2023-04-24T02:54:19;11.30;;;6.95;;
79697;SDS011;69168;42.708;23.286;2023-04-24T02:56:44;11.63;;;6.90;;
79697;SDS011;69168;42.708;23.286;2023-04-24T02:59:10;10.50;;;6.85;;
79697;SDS011;69168;42.708;23.286;2023-04-24T03:01:35;9.45;;;6.93;;
79697;SDS011;69168;42.708;23.286;2023-04-24T03:04:01;10.40;;;6.18;;
79697;SDS011;69168;42.708;23.286;2023-04-24T03:06:27;12.40;;;7.38;;
79697;SDS011;69168;42.708;23.286;2023-04-24T03:08:53;11.68;;;7.43;;
79697;SDS011;69168;42.708;23.286;2023-04-24T03:11:19;10.68;;;6.93;;
79697;SDS011;69168;42.708;23.286;2023-04-24T03:13:45;15.45;;;7.13;;
79697;SDS011;69168;42.708;23.286;2023-04-24T03:16:10;11.30;;;6.75;;
79697;SDS011;69168;42.708;23.286;2023-04-24T03:18:36;9.07;;;6.85;;
79697;SDS011;69168;42.708;23.286;2023-04-24T03:21:01;12.35;;;6.60;;
79697;SDS011;69168;42.708;23.286;2023-04-24T03:25:53;13.33;;;6.13;;
79697;SDS011;69168;42.708;23.286;2023-04-24T03:28:20;11.98;;;7.40;;
79697;SDS011;69168;42.708;23.286;2023-04-24T03:30:45;10.55;;;6.75;;
79697;SDS011;69168;42.708;23.286;2023-04-24T03:33:11;10.38;;;6.68;;
79697;SDS011;69168;42.708;23.286;2023-04-24T03:35:36;11.93;;;6.55;;
79697;SDS011;69168;42.708;23.286;2023-04-24T03:38:01;15.07;;;7.50;;
79697;SDS011;69168;42.708;23.286;2023-04-24T03:40:29;12.25;;;7.40;;
79697;SDS011;69168;42.708;23.286;2023-04-24T03:42:54;14.00;;;6.80;;
79697;SDS011;69168;42.708;23.286;2023-04-24T03:45:20;11.85;;;7.20;;
79697;SDS011;69168;42.708;23.286;2023-04-24T03:47:45;13.68;;;7.90;;
79697;SDS011;69168;42.708;23.286;2023-04-24T03:50:11;15.98;;;9.57;;
79697;SDS011;69168;42.708;23.286;2023-04-24T03:52:36;12.65;;;7.78;;
79697;SDS011;69168;42.708;23.286;2023-04-24T03:55:02;12.25;;;7.47;;
79697;SDS011;69168;42.708;23.286;2023-04-24T03:57:27;9.70;;;7.22;;
79697;SDS011;69168;42.708;23.286;2023-04-24T03:59:53;11.35;;;7.10;;
79697;SDS011;69168;42.708;23.286;2023-04-24T04:02:18;12.70;;;7.80;;
79697;SDS011;69168;42.708;23.286;2023-04-24T04:04:44;15.68;;;7.63;;
79697;SDS011;69168;42.708;23.286;2023-04-24T04:07:09;11.45;;;7.57;;
79697;SDS011;69168;42.708;23.286;2023-04-24T04:09:36;23.77;;;11.45;;
79697;SDS011;69168;42.708;23.286;2023-04-24T04:12:01;14.98;;;8.90;;
79697;SDS011;69168;42.708;23.286;2023-04-24T04:14:27;13.02;;;8.02;;
79697;SDS011;69168;42.708;23.286;2023-04-24T04:16:53;10.57;;;8.20;;
79697;SDS011;69168;42.708;23.286;2023-04-24T04:19:18;13.93;;;8.25;;
79697;SDS011;69168;42.708;23.286;2023-04-24T04:21:44;13.90;;;8.82;;
79697;SDS011;69168;42.708;23.286;2023-04-24T04:24:10;17.42;;;7.82;;
79697;SDS011;69168;42.708;23.286;2023-04-24T04:26:37;14.07;;;7.88;;
79697;SDS011;69168;42.708;23.286;2023-04-24T04:29:03;16.05;;;8.60;;
79697;SDS011;69168;42.708;23.286;2023-04-24T04:31:28;16.75;;;9.32;;
79697;SDS011;69168;42.708;23.286;2023-04-24T04:33:55;18.50;;;8.00;;
79697;SDS011;69168;42.708;23.286;2023-04-24T04:36:20;10.55;;;6.93;;
79697;SDS011;69168;42.708;23.286;2023-04-24T04:38:46;14.13;;;7.35;;
79697;SDS011;69168;42.708;23.286;2023-04-24T04:41:11;18.73;;;8.75;;
79697;SDS011;69168;42.708;23.286;2023-04-24T04:43:37;15.10;;;7.90;;
79697;SDS011;69168;42.708;23.286;2023-04-24T04:46:04;12.07;;;6.75;;
79697;SDS011;69168;42.708;23.286;2023-04-24T04:48:30;16.80;;;7.55;;
79697;SDS011;69168;42.708;23.286;2023-04-24T04:50:56;12.82;;;8.10;;
79697;SDS011;69168;42.708;23.286;2023-04-24T04:53:22;23.60;;;8.75;;
79697;SDS011;69168;42.708;23.286;2023-04-24T04:55:48;17.63;;;9.48;;
79697;SDS011;69168;42.708;23.286;2023-04-24T04:58:13;18.40;;;8.88;;
79697;SDS011;69168;42.708;23.286;2023-04-24T05:00:39;23.40;;;10.25;;
79697;SDS011;69168;42.708;23.286;2023-04-24T05:03:05;17.83;;;9.77;;
79697;SDS011;69168;42.708;23.286;2023-04-24T05:05:30;17.73;;;8.95;;
79697;SDS011;69168;42.708;23.286;2023-04-24T05:07:55;21.98;;;9.40;;
79697;SDS011;69168;42.708;23.286;2023-04-24T05:10:21;18.33;;;9.95;;
79697;SDS011;69168;42.708;23.286;2023-04-24T05:12:46;20.13;;;9.50;;
79697;SDS011;69168;42.708;23.286;2023-04-24T05:15:12;18.15;;;9.57;;
79697;SDS011;69168;42.708;23.286;2023-04-24T05:17:37;14.32;;;8.57;;
79697;SDS011;69168;42.708;23.286;2023-04-24T05:20:04;13.82;;;8.18;;
79697;SDS011;69168;42.708;23.286;2023-04-24T05:22:31;16.70;;;7.32;;
79697;SDS011;69168;42.708;23.286;2023-04-24T05:24:56;15.73;;;9.15;;
79697;SDS011;69168;42.708;23.286;2023-04-24T05:27:22;14.85;;;8.05;;
79697;SDS011;69168;42.708;23.286;2023-04-24T05:29:48;15.38;;;8.05;;
79697;SDS011;69168;42.708;23.286;2023-04-24T05:32:13;13.77;;;8.65;;
79697;SDS011;69168;42.708;23.286;2023-04-24T05:34:39;16.05;;;8.30;;
79697;SDS011;69168;42.708;23.286;2023-04-24T05:37:04;19.25;;;7.80;;
79697;SDS011;69168;42.708;23.286;2023-04-24T05:39:33;15.27;;;7.72;;
79697;SDS011;69168;42.708;23.286;2023-04-24T05:42:00;16.13;;;7.80;;
79697;SDS011;69168;42.708;23.286;2023-04-24T05:44:26;15.70;;;8.25;;
79697;SDS011;69168;42.708;23.286;2023-04-24T05:46:51;12.57;;;7.03;;
79697;SDS011;69168;42.708;23.286;2023-04-24T05:49:17;9.23;;;6.63;;
79697;SDS011;69168;42.708;23.286;2023-04-24T05:51:42;11.80;;;6.97;;
79697;SDS011;69168;42.708;23.286;2023-04-24T05:54:08;15.63;;;6.75;;
79697;SDS011;69168;42.708;23.286;2023-04-24T05:56:33;12.52;;;6.88;;
79697;SDS011;69168;42.708;23.286;2023-04-24T05:58:59;10.57;;;6.55;;
79697;SDS011;69168;42.708;23.286;2023-04-24T06:01:24;12.02;;;6.05;;
79697;SDS011;69168;42.708;23.286;2023-04-24T06:03:50;17.83;;;6.72;;
79697;SDS011;69168;42.708;23.286;2023-04-24T06:06:15;18.00;;;6.82;;
79697;SDS011;69168;42.708;23.286;2023-04-24T06:08:41;15.93;;;7.13;;
79697;SDS011;69168;42.708;23.286;2023-04-24T06:11:09;16.63;;;7.18;;
79697;SDS011;69168;42.708;23.286;2023-04-24T06:13:34;9.73;;;6.53;;
79697;SDS011;69168;42.708;23.286;2023-04-24T06:16:00;12.30;;;6.60;;
79697;SDS011;69168;42.708;23.286;2023-04-24T06:18:28;8.85;;;5.90;;
79697;SDS011;69168;42.708;23.286;2023-04-24T06:20:54;9.82;;;6.95;;
79697;SDS011;69168;42.708;23.286;2023-04-24T06:23:22;11.02;;;5.05;;
79697;SDS011;69168;42.708;23.286;2023-04-24T06:25:47;10.38;;;5.22;;
79697;SDS011;69168;42.708;23.286;2023-04-24T06:28:13;7.68;;;5.28;;
79697;SDS011;69168;42.708;23.286;2023-04-24T06:30:38;12.18;;;6.07;;
79697;SDS011;69168;42.708;23.286;2023-04-24T06:33:04;8.98;;;5.50;;
79697;SDS011;69168;42.708;23.286;2023-04-24T06:35:29;12.07;;;6.15;;
79697;SDS011;69168;42.708;23.286;2023-04-24T06:37:55;11.32;;;6.25;;
79697;SDS011;69168;42.708;23.286;2023-04-24T06:40:21;12.35;;;6.00;;
79697;SDS011;69168;42.708;23.286;2023-04-24T06:42:47;9.73;;;6.30;;
79697;SDS011;69168;42.708;23.286;2023-04-24T06:45:12;11.93;;;5.97;;
79697;SDS011;69168;42.708;23.286;2023-04-24T06:47:38;9.07;;;5.43;;
79697;SDS011;69168;42.708;23.286;2023-04-24T06:50:03;8.07;;;5.93;;
79697;SDS011;69168;42.708;23.286;2023-04-24T06:52:29;11.27;;;6.32;;
79697;SDS011;69168;42.708;23.286;2023-04-24T06:55:01;14.68;;;6.93;;
79697;SDS011;69168;42.708;23.286;2023-04-24T06:57:27;13.25;;;7.75;;
79697;SDS011;69168;42.708;23.286;2023-04-24T06:59:56;10.75;;;6.65;;
79697;SDS011;69168;42.708;23.286;2023-04-24T07:02:22;10.60;;;7.35;;
79697;SDS011;69168;42.708;23.286;2023-04-24T07:04:48;12.52;;;6.38;;
79697;SDS011;69168;42.708;23.286;2023-04-24T07:07:13;12.05;;;6.50;;
79697;SDS011;69168;42.708;23.286;2023-04-24T07:09:42;12.18;;;7.18;;
79697;SDS011;69168;42.708;23.286;2023-04-24T07:12:09;13.23;;;7.65;;
79697;SDS011;69168;42.708;23.286;2023-04-24T07:14:38;14.40;;;6.68;;
79697;SDS011;69168;42.708;23.286;2023-04-24T07:17:05;11.27;;;6.25;;
79697;SDS011;69168;42.708;23.286;2023-04-24T07:19:31;13.10;;;6.78;;
79697;SDS011;69168;42.708;23.286;2023-04-24T07:21:58;18.23;;;8.23;;
79697;SDS011;69168;42.708;23.286;2023-04-24T07:24:24;13.70;;;7.63;;
79697;SDS011;69168;42.708;23.286;2023-04-24T07:26:50;13.57;;;7.47;;
79697;SDS011;69168;42.708;23.286;2023-04-24T07:29:17;15.48;;;7.55;;
79697;SDS011;69168;42.708;23.286;2023-04-24T07:31:43;9.27;;;6.18;;
79697;SDS011;69168;42.708;23.286;2023-04-24T07:34:09;13.27;;;6.38;;
79697;SDS011;69168;42.708;23.286;2023-04-24T07:36:34;11.32;;;6.68;;
79697;SDS011;69168;42.708;23.286;2023-04-24T07:39:00;15.27;;;7.15;;
79697;SDS011;69168;42.708;23.286;2023-04-24T07:41:25;13.82;;;7.93;;
79697;SDS011;69168;42.708;23.286;2023-04-24T07:43:52;13.20;;;7.47;;
79697;SDS011;69168;42.708;23.286;2023-04-24T07:46:18;11.25;;;7.88;;
79697;SDS011;69168;42.708;23.286;2023-04-24T07:48:45;13.63;;;6.63;;
79697;SDS011;69168;42.708;23.286;2023-04-24T07:51:13;12.00;;;7.57;;
79697;SDS011;69168;42.708;23.286;2023-04-24T07:53:39;13.10;;;6.65;;
79697;SDS011;69168;42.708;23.286;2023-04-24T07:56:05;9.10;;;6.30;;
79697;SDS011;69168;42.708;23.286;2023-04-24T07:58:30;14.27;;;6.00;;
79697;SDS011;69168;42.708;23.286;2023-04-24T08:00:56;7.75;;;5.20;;
79697;SDS011;69168;42.708;23.286;2023-04-24T08:03:21;9.88;;;6.65;;
79697;SDS011;69168;42.708;23.286;2023-04-24T08:05:47;12.82;;;6.88;;
79697;SDS011;69168;42.708;23.286;2023-04-24T08:08:13;9.32;;;5.75;;
79697;SDS011;69168;42.708;23.286;2023-04-24T08:10:38;9.38;;;5.85;;
79697;SDS011;69168;42.708;23.286;2023-04-24T08:13:04;10.82;;;6.45;;
79697;SDS011;69168;42.708;23.286;2023-04-24T08:15:30;11.85;;;6.72;;
79697;SDS011;69168;42.708;23.286;2023-04-24T08:17:56;16.10;;;8.55;;
79697;SDS011;69168;42.708;23.286;2023-04-24T08:20:22;12.65;;;6.97;;
79697;SDS011;69168;42.708;23.286;2023-04-24T08:22:47;12.32;;;6.75;;
79697;SDS011;69168;42.708;23.286;2023-04-24T08:25:13;13.43;;;6.43;;
79697;SDS011;69168;42.708;23.286;2023-04-24T08:27:39;11.32;;;6.88;;
79697;SDS011;69168;42.708;23.286;2023-04-24T08:30:05;13.27;;;6.60;;
79697;SDS011;69168;42.708;23.286;2023-04-24T08:32:32;7.93;;;5.53;;
79697;SDS011;69168;42.708;23.286;2023-04-24T08:34:58;11.07;;;5.75;;
79697;SDS011;69168;42.708;23.286;2023-04-24T08:37:25;12.60;;;7.40;;
79697;SDS011;69168;42.708;23.286;2023-04-24T08:39:52;8.38;;;6.25;;
79697;SDS011;69168;42.708;23.286;2023-04-24T08:42:18;9.05;;;6.22;;
79697;SDS011;69168;42.708;23.286;2023-04-24T08:44:44;9.70;;;6.00;;
79697;SDS011;69168;42.708;23.286;2023-04-24T08:47:10;8.55;;;6.15;;
79697;SDS011;69168;42.708;23.286;2023-04-24T08:49:37;7.68;;;5.93;;
79697;SDS011;69168;42.708;23.286;2023-04-24T08:52:04;12.05;;;6.38;;
79697;SDS011;69168;42.708;23.286;2023-04-24T08:54:30;9.23;;;6.00;;
79697;SDS011;69168;42.708;23.286;2023-04-24T08:56:58;10.65;;;6.80;;
79697;SDS011;69168;42.708;23.286;2023-04-24T08:59:31;11.95;;;6.70;;
79697;SDS011;69168;42.708;23.286;2023-04-24T09:01:57;9.60;;;6.45;;
79697;SDS011;69168;42.708;23.286;2023-04-24T09:04:24;7.20;;;5.45;;
79697;SDS011;69168;42.708;23.286;2023-04-24T09:06:55;9.18;;;6.20;;
79697;SDS011;69168;42.708;23.286;2023-04-24T09:09:22;11.35;;;7.22;;
79697;SDS011;69168;42.708;23.286;2023-04-24T09:11:49;15.15;;;7.95;;
79697;SDS011;69168;42.708;23.286;2023-04-24T09:14:16;10.07;;;6.03;;
79697;SDS011;69168;42.708;23.286;2023-04-24T09:16:42;10.60;;;6.55;;
79697;SDS011;69168;42.708;23.286;2023-04-24T09:19:07;11.88;;;7.78;;
79697;SDS011;69168;42.708;23.286;2023-04-24T09:21:33;13.55;;;6.65;;
79697;SDS011;69168;42.708;23.286;2023-04-24T09:24:00;10.30;;;6.32;;
79697;SDS011;69168;42.708;23.286;2023-04-24T09:26:32;11.68;;;6.88;;
79697;SDS011;69168;42.708;23.286;2023-04-24T09:28:59;9.35;;;6.50;;
79697;SDS011;69168;42.708;23.286;2023-04-24T09:31:26;11.90;;;5.60;;
79697;SDS011;69168;42.708;23.286;2023-04-24T09:36:29;10.00;;;5.75;;
79697;SDS011;69168;42.708;23.286;2023-04-24T09:38:59;10.32;;;5.68;;
79697;SDS011;69168;42.708;23.286;2023-04-24T09:41:26;13.15;;;5.90;;
79697;SDS011;69168;42.708;23.286;2023-04-24T09:43:56;10.32;;;6.05;;
79697;SDS011;69168;42.708;23.286;2023-04-24T09:46:30;7.80;;;4.93;;
79697;SDS011;69168;42.708;23.286;2023-04-24T09:48:56;8.68;;;5.35;;
79697;SDS011;69168;42.708;23.286;2023-04-24T09:51:35;8.25;;;5.35;;
79697;SDS011;69168;42.708;23.286;2023-04-24T09:54:03;10.68;;;5.60;;
79697;SDS011;69168;42.708;23.286;2023-04-24T09:56:32;9.65;;;5.68;;
79697;SDS011;69168;42.708;23.286;2023-04-24T09:59:05;9.32;;;5.40;;
79697;SDS011;69168;42.708;23.286;2023-04-24T10:01:31;13.73;;;6.22;;
79697;SDS011;69168;42.708;23.286;2023-04-24T10:03:57;9.00;;;5.53;;
79697;SDS011;69168;42.708;23.286;2023-04-24T10:06:23;10.30;;;5.40;;
79697;SDS011;69168;42.708;23.286;2023-04-24T10:08:59;8.38;;;4.75;;
79697;SDS011;69168;42.708;23.286;2023-04-24T10:11:28;5.72;;;4.50;;
79697;SDS011;69168;42.708;23.286;2023-04-24T10:13:55;9.90;;;5.03;;
79697;SDS011;69168;42.708;23.286;2023-04-24T10:16:22;8.57;;;4.97;;
79697;SDS011;69168;42.708;23.286;2023-04-24T10:18:48;4.82;;;4.03;;
79697;SDS011;69168;42.708;23.286;2023-04-24T10:21:14;6.97;;;4.68;;
79697;SDS011;69168;42.708;23.286;2023-04-24T10:23:41;6.40;;;4.75;;
79697;SDS011;69168;42.708;23.286;2023-04-24T10:26:08;7.80;;;4.72;;
79697;SDS011;69168;42.708;23.286;2023-04-24T10:28:36;11.50;;;4.82;;
79697;SDS011;69168;42.708;23.286;2023-04-24T10:31:01;6.88;;;4.78;;
79697;SDS011;69168;42.708;23.286;2023-04-24T10:33:27;8.07;;;4.88;;
79697;SDS011;69168;42.708;23.286;2023-04-24T10:35:54;7.47;;;4.63;;
79697;SDS011;69168;42.708;23.286;2023-04-24T10:38:24;9.13;;;5.15;;
79697;SDS011;69168;42.708;23.286;2023-04-24T10:40:57;8.45;;;4.68;;
79697;SDS011;69168;42.708;23.286;2023-04-24T10:43:32;6.15;;;4.43;;
79697;SDS011;69168;42.708;23.286;2023-04-24T10:46:02;9.43;;;4.68;;
79697;SDS011;69168;42.708;23.286;2023-04-24T10:48:28;11.07;;;4.30;;
79697;SDS011;69168;42.708;23.286;2023-04-24T10:50:54;7.15;;;4.95;;
79697;SDS011;69168;42.708;23.286;2023-04-24T10:53:24;10.07;;;4.30;;
79697;SDS011;69168;42.708;23.286;2023-04-24T10:56:02;9.10;;;4.55;;
79697;SDS011;69168;42.708;23.286;2023-04-24T10:58:41;7.35;;;4.47;;
79697;SDS011;69168;42.708;23.286;2023-04-24T11:01:44;7.50;;;4.65;;
79697;SDS011;69168;42.708;23.286;2023-04-24T11:04:03;7.07;;;4.50;;
79697;SDS011;69168;42.708;23.286;2023-04-24T11:09:09;13.88;;;5.03;;
79697;SDS011;69168;42.708;23.286;2023-04-24T11:11:38;8.68;;;4.47;;
79697;SDS011;69168;42.708;23.286;2023-04-24T11:14:10;8.93;;;5.28;;
79697;SDS011;69168;42.708;23.286;2023-04-24T11:16:43;6.97;;;4.82;;
79697;SDS011;69168;42.708;23.286;2023-04-24T11:19:27;5.72;;;4.03;;
79697;SDS011;69168;42.708;23.286;2023-04-24T11:21:54;9.70;;;4.68;;
79697;SDS011;69168;42.708;23.286;2023-04-24T11:24:32;8.05;;;4.80;;
79697;SDS011;69168;42.708;23.286;2023-04-24T11:27:12;9.88;;;5.43;;
79697;SDS011;69168;42.708;23.286;2023-04-24T11:35:04;8.60;;;6.80;;
79697;SDS011;69168;42.708;23.286;2023-04-24T11:37:34;11.30;;;8.13;;
79697;SDS011;69168;42.708;23.286;2023-04-24T11:40:01;13.95;;;8.93;;
79697;SDS011;69168;42.708;23.286;2023-04-24T11:42:29;10.80;;;6.65;;
79697;SDS011;69168;42.708;23.286;2023-04-24T11:45:02;8.13;;;5.40;;
79697;SDS011;69168;42.708;23.286;2023-04-24T11:47:35;5.55;;;4.57;;
79697;SDS011;69168;42.708;23.286;2023-04-24T11:50:02;8.45;;;4.93;;
79697;SDS011;69168;42.708;23.286;2023-04-24T11:52:30;5.07;;;4.40;;
79697;SDS011;69168;42.708;23.286;2023-04-24T11:54:56;6.80;;;5.63;;
79697;SDS011;69168;42.708;23.286;2023-04-24T11:57:22;7.47;;;4.07;;
79697;SDS011;69168;42.708;23.286;2023-04-24T11:59:51;5.80;;;4.32;;
79697;SDS011;69168;42.708;23.286;2023-04-24T12:02:22;8.30;;;5.68;;
79697;SDS011;69168;42.708;23.286;2023-04-24T12:04:47;4.43;;;3.67;;
79697;SDS011;69168;42.708;23.286;2023-04-24T12:07:13;4.75;;;4.00;;
79697;SDS011;69168;42.708;23.286;2023-04-24T12:09:49;5.45;;;4.15;;
79697;SDS011;69168;42.708;23.286;2023-04-24T12:12:23;6.82;;;4.05;;
79697;SDS011;69168;42.708;23.286;2023-04-24T12:14:54;5.35;;;3.28;;
79697;SDS011;69168;42.708;23.286;2023-04-24T12:17:31;4.75;;;3.80;;
79697;SDS011;69168;42.708;23.286;2023-04-24T12:20:04;5.15;;;3.45;;
79697;SDS011;69168;42.708;23.286;2023-04-24T12:22:48;5.53;;;4.25;;
79697;SDS011;69168;42.708;23.286;2023-04-24T12:25:14;7.80;;;4.80;;
79697;SDS011;69168;42.708;23.286;2023-04-24T12:27:41;7.72;;;4.35;;
79697;SDS011;69168;42.708;23.286;2023-04-24T12:30:12;7.10;;;4.07;;
79697;SDS011;69168;42.708;23.286;2023-04-24T12:32:45;5.88;;;4.70;;
79697;SDS011;69168;42.708;23.286;2023-04-24T12:35:12;5.93;;;4.13;;
79697;SDS011;69168;42.708;23.286;2023-04-24T12:37:41;6.60;;;4.22;;
79697;SDS011;69168;42.708;23.286;2023-04-24T12:40:11;6.75;;;4.13;;
79697;SDS011;69168;42.708;23.286;2023-04-24T12:42:44;6.00;;;3.97;;
79697;SDS011;69168;42.708;23.286;2023-04-24T12:45:11;5.90;;;4.20;;
79697;SDS011;69168;42.708;23.286;2023-04-24T12:47:37;6.07;;;4.53;;
79697;SDS011;69168;42.708;23.286;2023-04-24T12:50:04;6.53;;;3.95;;
79697;SDS011;69168;42.708;23.286;2023-04-24T12:52:30;5.32;;;3.83;;
79697;SDS011;69168;42.708;23.286;2023-04-24T12:54:57;4.70;;;3.58;;
79697;SDS011;69168;42.708;23.286;2023-04-24T12:57:24;5.88;;;3.92;;
79697;SDS011;69168;42.708;23.286;2023-04-24T12:59:50;6.80;;;4.32;;
79697;SDS011;69168;42.708;23.286;2023-04-24T13:02:16;5.35;;;4.25;;
79697;SDS011;69168;42.708;23.286;2023-04-24T13:04:46;4.95;;;3.65;;
79697;SDS011;69168;42.708;23.286;2023-04-24T13:07:12;4.82;;;3.63;;
79697;SDS011;69168;42.708;23.286;2023-04-24T13:09:39;6.40;;;3.72;;
79697;SDS011;69168;42.708;23.286;2023-04-24T13:12:05;5.53;;;4.00;;
79697;SDS011;69168;42.708;23.286;2023-04-24T13:14:31;4.55;;;4.00;;
79697;SDS011;69168;42.708;23.286;2023-04-24T13:16:57;7.35;;;4.32;;
79697;SDS011;69168;42.708;23.286;2023-04-24T13:19:26;3.95;;;3.65;;
79697;SDS011;69168;42.708;23.286;2023-04-24T13:21:52;7.03;;;3.97;;
79697;SDS011;69168;42.708;23.286;2023-04-24T13:24:20;8.45;;;3.80;;
79697;SDS011;69168;42.708;23.286;2023-04-24T13:26:45;4.20;;;3.25;;
79697;SDS011;69168;42.708;23.286;2023-04-24T13:29:11;7.85;;;3.50;;
79697;SDS011;69168;42.708;23.286;2023-04-24T13:31:36;5.43;;;3.72;;
79697;SDS011;69168;42.708;23.286;2023-04-24T13:34:02;5.07;;;3.58;;
79697;SDS011;69168;42.708;23.286;2023-04-24T13:38:55;6.18;;;3.30;;
79697;SDS011;69168;42.708;23.286;2023-04-24T13:41:20;3.65;;;3.35;;
79697;SDS011;69168;42.708;23.286;2023-04-24T13:43:46;4.55;;;3.95;;
79697;SDS011;69168;42.708;23.286;2023-04-24T13:46:11;4.45;;;3.53;;
79697;SDS011;69168;42.708;23.286;2023-04-24T13:48:37;4.60;;;3.00;;
79697;SDS011;69168;42.708;23.286;2023-04-24T13:51:02;6.90;;;3.60;;
79697;SDS011;69168;42.708;23.286;2023-04-24T13:53:28;6.05;;;3.08;;
79697;SDS011;69168;42.708;23.286;2023-04-24T13:55:53;5.03;;;3.53;;
79697;SDS011;69168;42.708;23.286;2023-04-24T13:58:19;7.50;;;3.58;;
79697;SDS011;69168;42.708;23.286;2023-04-24T14:00:45;5.20;;;3.05;;
79697;SDS011;69168;42.708;23.286;2023-04-24T14:03:11;5.28;;;3.22;;
79697;SDS011;69168;42.708;23.286;2023-04-24T14:05:36;4.07;;;3.10;;
79697;SDS011;69168;42.708;23.286;2023-04-24T14:08:02;4.35;;;3.05;;
79697;SDS011;69168;42.708;23.286;2023-04-24T14:10:27;3.33;;;3.03;;
79697;SDS011;69168;42.708;23.286;2023-04-24T14:12:53;7.45;;;3.92;;
79697;SDS011;69168;42.708;23.286;2023-04-24T14:15:18;3.95;;;2.88;;
79697;SDS011;69168;42.708;23.286;2023-04-24T14:17:44;3.70;;;2.97;;
79697;SDS011;69168;42.708;23.286;2023-04-24T14:20:12;3.55;;;3.03;;
79697;SDS011;69168;42.708;23.286;2023-04-24T14:22:38;6.30;;;3.28;;
79697;SDS011;69168;42.708;23.286;2023-04-24T14:25:04;5.88;;;3.13;;
79697;SDS011;69168;42.708;23.286;2023-04-24T14:27:30;3.65;;;3.15;;
79697;SDS011;69168;42.708;23.286;2023-04-24T14:29:57;7.32;;;3.70;;
79697;SDS011;69168;42.708;23.286;2023-04-24T14:32:22;5.25;;;3.75;;
79697;SDS011;69168;42.708;23.286;2023-04-24T14:34:48;5.45;;;3.55;;
79697;SDS011;69168;42.708;23.286;2023-04-24T14:37:13;4.80;;;3.63;;
79697;SDS011;69168;42.708;23.286;2023-04-24T14:39:39;6.63;;;4.03;;
79697;SDS011;69168;42.708;23.286;2023-04-24T14:42:05;5.15;;;3.60;;